LFJLLFSN

Guest
Details From LFJL - Metz-Nancy-Lorraine
To LFSN - Nancy Essey
Flight Number -
Tags generated
Created
Modified
Stats Distance 17 nm / 32 km
Max Altitude 0 ft / 0 m
Waypoints 2
Social Downloads 0
Likes 0
Share VATSIM

Download

Looking for another format? Having issues loading an existing format? Contact us
Advertisement - Login to hide

Notes

Basic altitude profile: - Ascent Rate: 2500ft/min - Ascent Speed: 250kts - Cruise Altitude: 35000ft - Cruise Speed: 420kts - Descent Rate: 1500ft/min - Descent Speed: 250kts Options: - Use NATs: yes - Use PACOTS: yes - Use low airways: yes - Use high airways: no

Route

LFJL LFSN

ID Type Via Altitude Latitude Longitude Leg Dist Tot Dist Heading (true) Name
O LFJL APT - 0 ft / 0 m 48.98065˚ 6.24947˚ - 0 nm - Metz-Nancy-Lorraine
O LFSN APT - 0 ft / 0 m 48.69208˚ 6.23045˚ 17 nm 17 nm 182° / 182° Nancy Essey

Altitude Profile

Advertisement - Login to hide

LFJL

Details ICAO LFJL (ETZ)
Name Metz-Nancy-Lorraine
Region France
Timezone Europe/Paris (UTC+2.0)
Stats Elevation 870 ft / 265 m (AMSL)
Location 48.980645° 6.249473°
Runways 1
Magnetic Variation 1.776° E

METAR

LFJL 260200Z AUTO 08007KT 8000 NSC 16/13 Q1017 NOSIG

Decode

TAF

TAF LFJL 252300Z 2600/2624 09008KT CAVOK TEMPO 2612/2618 16006KT PROB30 TEMPO 2615/2618 FEW060CB

Decode

Departure Runways

ID Width Length Bearing (true) Bearing (mag) Surface Threshold Offset Overrun Length
04 148 ft / 45 m 10,016 ft / 3,053 m 39.13° 37.35° Asphalt 656 ft / 200 m 0 ft / 0 m
22 148 ft / 45 m 10,016 ft / 3,053 m 219.15° 217.37° Asphalt 0 ft / 0 m 0 ft / 0 m

LFSN

Details ICAO LFSN (ENC)
Name Nancy Essey
Region France
Timezone Europe/Paris (UTC+2.0)
Stats Elevation 751 ft / 229 m (AMSL)
Location 48.692079° 6.230454°
Runways 1
Magnetic Variation 1.778° E

METAR

LFSN 260200Z AUTO VRB02KT CAVOK 15/13 Q1017

Decode

TAF

Not found

Destination Runways

ID Width Length Bearing (true) Bearing (mag) Surface Threshold Offset Overrun Length
03 131 ft / 40 m 4,584 ft / 1,397 m 28.80° 27.02° Asphalt 0 ft / 0 m 0 ft / 0 m
21 131 ft / 40 m 4,584 ft / 1,397 m 208.81° 207.03° Asphalt 0 ft / 0 m 0 ft / 0 m

Approach Navaids

Runway Type Ident Frequency Range Bearing (true) Bearing (mag) Slope Elevation
03 Localiser NY 108.50 MHz 18 nm / 33 km 30.42° 28.64° - 751 ft / 229 m (AMSL)
03 Glidescope NY 108.50 MHz 10 nm / 19 km 28.81° 27.03° 3.00° 751 ft / 229 m (AMSL)
21 Localiser NY 108.50 MHz 18 nm / 33 km 209.11° 207.33° - 751 ft / 229 m (AMSL)

Popular Alternatives